sensor_id;sensor_type;location;lat;lon;timestamp;P1;durP1;ratioP1;P2;durP2;ratioP2
59756;SDS011;45631;51.962;5.974;2023-04-03T00:01:19;3.97;;;1.73;;
59756;SDS011;45631;51.962;5.974;2023-04-03T00:03:47;4.30;;;1.75;;
59756;SDS011;45631;51.962;5.974;2023-04-03T00:06:15;5.43;;;1.75;;
59756;SDS011;45631;51.962;5.974;2023-04-03T00:08:43;6.03;;;2.03;;
59756;SDS011;45631;51.962;5.974;2023-04-03T00:11:11;5.18;;;1.60;;
59756;SDS011;45631;51.962;5.974;2023-04-03T00:13:39;4.10;;;1.80;;
59756;SDS011;45631;51.962;5.974;2023-04-03T00:16:08;3.55;;;1.60;;
59756;SDS011;45631;51.962;5.974;2023-04-03T00:18:39;6.18;;;2.00;;
59756;SDS011;45631;51.962;5.974;2023-04-03T00:21:08;6.72;;;1.75;;
59756;SDS011;45631;51.962;5.974;2023-04-03T00:23:37;3.70;;;1.80;;
59756;SDS011;45631;51.962;5.974;2023-04-03T00:26:05;5.25;;;1.60;;
59756;SDS011;45631;51.962;5.974;2023-04-03T00:28:34;7.50;;;1.80;;
59756;SDS011;45631;51.962;5.974;2023-04-03T00:31:05;5.75;;;1.80;;
59756;SDS011;45631;51.962;5.974;2023-04-03T00:33:33;5.68;;;2.00;;
59756;SDS011;45631;51.962;5.974;2023-04-03T00:36:06;5.93;;;1.95;;
59756;SDS011;45631;51.962;5.974;2023-04-03T00:38:37;4.80;;;1.83;;
59756;SDS011;45631;51.962;5.974;2023-04-03T00:41:07;5.45;;;1.50;;
59756;SDS011;45631;51.962;5.974;2023-04-03T00:43:36;6.55;;;1.98;;
59756;SDS011;45631;51.962;5.974;2023-04-03T00:46:07;4.75;;;1.77;;
59756;SDS011;45631;51.962;5.974;2023-04-03T00:48:37;5.50;;;1.90;;
59756;SDS011;45631;51.962;5.974;2023-04-03T00:51:11;6.10;;;2.08;;
59756;SDS011;45631;51.962;5.974;2023-04-03T00:53:43;4.85;;;1.90;;
59756;SDS011;45631;51.962;5.974;2023-04-03T00:56:15;4.97;;;1.70;;
59756;SDS011;45631;51.962;5.974;2023-04-03T00:58:46;5.55;;;1.90;;
59756;SDS011;45631;51.962;5.974;2023-04-03T01:01:18;4.28;;;1.60;;
59756;SDS011;45631;51.962;5.974;2023-04-03T01:03:50;5.63;;;2.03;;
59756;SDS011;45631;51.962;5.974;2023-04-03T01:06:21;4.68;;;1.80;;
59756;SDS011;45631;51.962;5.974;2023-04-03T01:08:53;8.75;;;2.10;;
59756;SDS011;45631;51.962;5.974;2023-04-03T01:11:23;4.43;;;1.67;;
59756;SDS011;45631;51.962;5.974;2023-04-03T01:13:51;6.80;;;1.70;;
59756;SDS011;45631;51.962;5.974;2023-04-03T01:16:19;5.53;;;1.85;;
59756;SDS011;45631;51.962;5.974;2023-04-03T01:18:48;6.43;;;2.10;;
59756;SDS011;45631;51.962;5.974;2023-04-03T01:21:31;4.95;;;1.70;;
59756;SDS011;45631;51.962;5.974;2023-04-03T01:24:25;6.55;;;1.75;;
59756;SDS011;45631;51.962;5.974;2023-04-03T01:26:59;5.38;;;1.83;;
59756;SDS011;45631;51.962;5.974;2023-04-03T01:29:30;7.55;;;2.03;;
59756;SDS011;45631;51.962;5.974;2023-04-03T01:32:00;6.13;;;1.80;;
59756;SDS011;45631;51.962;5.974;2023-04-03T01:34:30;5.57;;;1.63;;
59756;SDS011;45631;51.962;5.974;2023-04-03T01:36:59;4.90;;;1.63;;
59756;SDS011;45631;51.962;5.974;2023-04-03T01:39:27;5.55;;;2.10;;
59756;SDS011;45631;51.962;5.974;2023-04-03T01:41:55;5.00;;;1.85;;
59756;SDS011;45631;51.962;5.974;2023-04-03T01:44:23;6.57;;;2.05;;
59756;SDS011;45631;51.962;5.974;2023-04-03T01:46:53;4.57;;;1.73;;
59756;SDS011;45631;51.962;5.974;2023-04-03T01:49:23;4.53;;;1.60;;
59756;SDS011;45631;51.962;5.974;2023-04-03T01:51:51;5.20;;;1.90;;
59756;SDS011;45631;51.962;5.974;2023-04-03T01:54:19;5.80;;;1.92;;
59756;SDS011;45631;51.962;5.974;2023-04-03T01:56:47;4.80;;;1.60;;
59756;SDS011;45631;51.962;5.974;2023-04-03T01:59:15;5.45;;;2.13;;
59756;SDS011;45631;51.962;5.974;2023-04-03T02:01:45;7.07;;;1.90;;
59756;SDS011;45631;51.962;5.974;2023-04-03T02:04:13;6.90;;;2.20;;
59756;SDS011;45631;51.962;5.974;2023-04-03T02:06:43;5.45;;;2.03;;
59756;SDS011;45631;51.962;5.974;2023-04-03T02:09:11;6.50;;;1.60;;
59756;SDS011;45631;51.962;5.974;2023-04-03T02:11:39;5.28;;;1.60;;
59756;SDS011;45631;51.962;5.974;2023-04-03T02:14:08;7.10;;;1.95;;
59756;SDS011;45631;51.962;5.974;2023-04-03T02:16:36;7.63;;;2.00;;
59756;SDS011;45631;51.962;5.974;2023-04-03T02:19:04;7.45;;;1.73;;
59756;SDS011;45631;51.962;5.974;2023-04-03T02:21:33;4.68;;;1.70;;
59756;SDS011;45631;51.962;5.974;2023-04-03T02:24:03;5.93;;;1.85;;
59756;SDS011;45631;51.962;5.974;2023-04-03T02:26:31;3.80;;;1.58;;
59756;SDS011;45631;51.962;5.974;2023-04-03T02:29:00;8.45;;;2.15;;
59756;SDS011;45631;51.962;5.974;2023-04-03T02:31:28;8.07;;;2.03;;
59756;SDS011;45631;51.962;5.974;2023-04-03T02:33:56;5.90;;;2.13;;
59756;SDS011;45631;51.962;5.974;2023-04-03T02:36:24;6.03;;;2.17;;
59756;SDS011;45631;51.962;5.974;2023-04-03T02:38:52;5.47;;;2.33;;
59756;SDS011;45631;51.962;5.974;2023-04-03T02:41:22;6.13;;;2.03;;
59756;SDS011;45631;51.962;5.974;2023-04-03T02:43:52;7.20;;;2.15;;
59756;SDS011;45631;51.962;5.974;2023-04-03T02:46:20;6.65;;;2.10;;
59756;SDS011;45631;51.962;5.974;2023-04-03T02:48:48;6.43;;;1.80;;
59756;SDS011;45631;51.962;5.974;2023-04-03T02:51:16;6.95;;;2.10;;
59756;SDS011;45631;51.962;5.974;2023-04-03T02:53:45;4.20;;;1.83;;
59756;SDS011;45631;51.962;5.974;2023-04-03T02:56:15;6.70;;;2.10;;
59756;SDS011;45631;51.962;5.974;2023-04-03T02:58:45;5.10;;;1.80;;
59756;SDS011;45631;51.962;5.974;2023-04-03T03:01:14;4.03;;;1.70;;
59756;SDS011;45631;51.962;5.974;2023-04-03T03:03:42;3.70;;;1.98;;
59756;SDS011;45631;51.962;5.974;2023-04-03T03:06:14;8.25;;;2.33;;
59756;SDS011;45631;51.962;5.974;2023-04-03T03:08:44;6.57;;;2.00;;
59756;SDS011;45631;51.962;5.974;2023-04-03T03:11:15;6.65;;;2.22;;
59756;SDS011;45631;51.962;5.974;2023-04-03T03:13:46;6.38;;;2.10;;
59756;SDS011;45631;51.962;5.974;2023-04-03T03:16:15;6.40;;;2.03;;
59756;SDS011;45631;51.962;5.974;2023-04-03T03:18:46;6.32;;;2.25;;
59756;SDS011;45631;51.962;5.974;2023-04-03T03:21:16;7.93;;;2.20;;
59756;SDS011;45631;51.962;5.974;2023-04-03T03:23:47;6.38;;;1.90;;
59756;SDS011;45631;51.962;5.974;2023-04-03T03:26:15;6.00;;;2.20;;
59756;SDS011;45631;51.962;5.974;2023-04-03T03:28:43;8.30;;;3.10;;
59756;SDS011;45631;51.962;5.974;2023-04-03T03:31:13;6.80;;;2.25;;
59756;SDS011;45631;51.962;5.974;2023-04-03T03:33:41;6.43;;;2.40;;
59756;SDS011;45631;51.962;5.974;2023-04-03T03:36:11;6.05;;;2.10;;
59756;SDS011;45631;51.962;5.974;2023-04-03T03:38:42;5.50;;;2.03;;
59756;SDS011;45631;51.962;5.974;2023-04-03T03:41:10;4.50;;;1.80;;
59756;SDS011;45631;51.962;5.974;2023-04-03T03:43:38;7.30;;;2.20;;
59756;SDS011;45631;51.962;5.974;2023-04-03T03:46:07;7.10;;;2.17;;
59756;SDS011;45631;51.962;5.974;2023-04-03T03:48:39;7.35;;;2.13;;
59756;SDS011;45631;51.962;5.974;2023-04-03T03:51:08;7.00;;;2.00;;
59756;SDS011;45631;51.962;5.974;2023-04-03T03:53:36;8.48;;;2.45;;
59756;SDS011;45631;51.962;5.974;2023-04-03T03:56:06;8.50;;;2.97;;
59756;SDS011;45631;51.962;5.974;2023-04-03T03:58:34;5.50;;;2.00;;
59756;SDS011;45631;51.962;5.974;2023-04-03T04:01:03;7.90;;;2.17;;
59756;SDS011;45631;51.962;5.974;2023-04-03T04:03:33;6.47;;;2.15;;
59756;SDS011;45631;51.962;5.974;2023-04-03T04:06:03;8.20;;;1.92;;
59756;SDS011;45631;51.962;5.974;2023-04-03T04:08:31;4.45;;;1.98;;
59756;SDS011;45631;51.962;5.974;2023-04-03T04:10:59;6.03;;;1.98;;
59756;SDS011;45631;51.962;5.974;2023-04-03T04:13:28;7.13;;;2.80;;
59756;SDS011;45631;51.962;5.974;2023-04-03T04:15:56;7.10;;;2.38;;
59756;SDS011;45631;51.962;5.974;2023-04-03T04:18:24;6.97;;;2.25;;
59756;SDS011;45631;51.962;5.974;2023-04-03T04:20:52;8.75;;;2.28;;
59756;SDS011;45631;51.962;5.974;2023-04-03T04:23:21;9.25;;;2.92;;
59756;SDS011;45631;51.962;5.974;2023-04-03T04:25:50;5.68;;;2.10;;
59756;SDS011;45631;51.962;5.974;2023-04-03T04:28:19;9.07;;;2.30;;
59756;SDS011;45631;51.962;5.974;2023-04-03T04:30:47;8.38;;;2.63;;
59756;SDS011;45631;51.962;5.974;2023-04-03T04:33:15;8.25;;;2.25;;
59756;SDS011;45631;51.962;5.974;2023-04-03T04:35:43;6.53;;;2.30;;
59756;SDS011;45631;51.962;5.974;2023-04-03T04:38:11;4.97;;;2.15;;
59756;SDS011;45631;51.962;5.974;2023-04-03T04:40:41;6.63;;;2.35;;
59756;SDS011;45631;51.962;5.974;2023-04-03T04:43:09;7.95;;;2.80;;
59756;SDS011;45631;51.962;5.974;2023-04-03T04:45:40;7.55;;;2.25;;
59756;SDS011;45631;51.962;5.974;2023-04-03T04:48:08;6.60;;;2.47;;
59756;SDS011;45631;51.962;5.974;2023-04-03T04:50:36;9.55;;;2.60;;
59756;SDS011;45631;51.962;5.974;2023-04-03T04:53:05;9.25;;;2.22;;
59756;SDS011;45631;51.962;5.974;2023-04-03T04:55:33;6.88;;;2.22;;
59756;SDS011;45631;51.962;5.974;2023-04-03T04:58:02;10.60;;;2.17;;
59756;SDS011;45631;51.962;5.974;2023-04-03T05:00:31;7.57;;;2.38;;
59756;SDS011;45631;51.962;5.974;2023-04-03T05:02:59;8.48;;;2.33;;
59756;SDS011;45631;51.962;5.974;2023-04-03T05:05:27;7.18;;;2.55;;
59756;SDS011;45631;51.962;5.974;2023-04-03T05:07:58;10.35;;;2.22;;
59756;SDS011;45631;51.962;5.974;2023-04-03T05:10:26;10.52;;;2.08;;
59756;SDS011;45631;51.962;5.974;2023-04-03T05:12:56;7.93;;;2.10;;
59756;SDS011;45631;51.962;5.974;2023-04-03T05:15:26;8.43;;;2.80;;
59756;SDS011;45631;51.962;5.974;2023-04-03T05:17:55;5.55;;;1.80;;
59756;SDS011;45631;51.962;5.974;2023-04-03T05:20:23;7.82;;;2.90;;
59756;SDS011;45631;51.962;5.974;2023-04-03T05:22:51;8.20;;;2.25;;
59756;SDS011;45631;51.962;5.974;2023-04-03T05:25:19;10.52;;;2.25;;
59756;SDS011;45631;51.962;5.974;2023-04-03T05:27:47;4.18;;;2.08;;
59756;SDS011;45631;51.962;5.974;2023-04-03T05:30:16;7.28;;;1.85;;
59756;SDS011;45631;51.962;5.974;2023-04-03T05:32:46;7.95;;;2.20;;
59756;SDS011;45631;51.962;5.974;2023-04-03T05:35:14;5.65;;;2.17;;
59756;SDS011;45631;51.962;5.974;2023-04-03T05:37:43;7.82;;;2.30;;
59756;SDS011;45631;51.962;5.974;2023-04-03T05:40:11;5.18;;;1.90;;
59756;SDS011;45631;51.962;5.974;2023-04-03T05:42:43;5.85;;;1.90;;
59756;SDS011;45631;51.962;5.974;2023-04-03T05:45:11;6.00;;;2.30;;
59756;SDS011;45631;51.962;5.974;2023-04-03T05:47:39;6.32;;;2.00;;
59756;SDS011;45631;51.962;5.974;2023-04-03T05:50:09;7.55;;;1.90;;
59756;SDS011;45631;51.962;5.974;2023-04-03T05:52:38;8.60;;;2.13;;
59756;SDS011;45631;51.962;5.974;2023-04-03T05:55:10;8.18;;;2.58;;
59756;SDS011;45631;51.962;5.974;2023-04-03T05:57:38;5.15;;;2.08;;
59756;SDS011;45631;51.962;5.974;2023-04-03T06:00:11;7.90;;;2.30;;
59756;SDS011;45631;51.962;5.974;2023-04-03T06:02:40;6.45;;;2.60;;
59756;SDS011;45631;51.962;5.974;2023-04-03T06:05:10;8.18;;;2.25;;
59756;SDS011;45631;51.962;5.974;2023-04-03T06:07:39;7.38;;;2.00;;
59756;SDS011;45631;51.962;5.974;2023-04-03T06:10:08;5.63;;;2.20;;
59756;SDS011;45631;51.962;5.974;2023-04-03T06:12:38;8.93;;;2.55;;
59756;SDS011;45631;51.962;5.974;2023-04-03T06:15:07;8.25;;;2.40;;
59756;SDS011;45631;51.962;5.974;2023-04-03T06:17:36;10.07;;;2.45;;
59756;SDS011;45631;51.962;5.974;2023-04-03T06:20:05;7.72;;;2.15;;
59756;SDS011;45631;51.962;5.974;2023-04-03T06:22:38;7.63;;;1.95;;
59756;SDS011;45631;51.962;5.974;2023-04-03T06:25:08;9.15;;;2.67;;
59756;SDS011;45631;51.962;5.974;2023-04-03T06:27:37;7.28;;;1.83;;
59756;SDS011;45631;51.962;5.974;2023-04-03T06:30:08;11.43;;;2.23;;
59756;SDS011;45631;51.962;5.974;2023-04-03T06:32:37;6.90;;;1.92;;
59756;SDS011;45631;51.962;5.974;2023-04-03T06:35:06;8.18;;;1.83;;
59756;SDS011;45631;51.962;5.974;2023-04-03T06:37:35;5.55;;;1.83;;
59756;SDS011;45631;51.962;5.974;2023-04-03T06:40:05;6.25;;;1.85;;
59756;SDS011;45631;51.962;5.974;2023-04-03T06:42:34;8.60;;;2.28;;
59756;SDS011;45631;51.962;5.974;2023-04-03T06:45:02;5.75;;;2.13;;
59756;SDS011;45631;51.962;5.974;2023-04-03T06:47:31;7.75;;;2.25;;
59756;SDS011;45631;51.962;5.974;2023-04-03T06:50:00;6.93;;;2.10;;
59756;SDS011;45631;51.962;5.974;2023-04-03T06:52:28;6.80;;;1.98;;
59756;SDS011;45631;51.962;5.974;2023-04-03T06:54:56;6.50;;;1.90;;
59756;SDS011;45631;51.962;5.974;2023-04-03T06:57:27;5.47;;;1.55;;
59756;SDS011;45631;51.962;5.974;2023-04-03T06:59:57;7.20;;;2.00;;
59756;SDS011;45631;51.962;5.974;2023-04-03T07:02:26;6.80;;;1.80;;
59756;SDS011;45631;51.962;5.974;2023-04-03T07:04:54;4.95;;;1.80;;
59756;SDS011;45631;51.962;5.974;2023-04-03T07:07:23;7.22;;;2.45;;
59756;SDS011;45631;51.962;5.974;2023-04-03T07:09:51;6.32;;;2.10;;
59756;SDS011;45631;51.962;5.974;2023-04-03T07:12:19;6.07;;;1.60;;
59756;SDS011;45631;51.962;5.974;2023-04-03T07:14:48;5.03;;;1.98;;
59756;SDS011;45631;51.962;5.974;2023-04-03T07:17:16;9.25;;;1.83;;
59756;SDS011;45631;51.962;5.974;2023-04-03T07:19:44;4.07;;;1.70;;
59756;SDS011;45631;51.962;5.974;2023-04-03T07:22:12;6.75;;;1.77;;
59756;SDS011;45631;51.962;5.974;2023-04-03T07:24:41;6.72;;;2.17;;
59756;SDS011;45631;51.962;5.974;2023-04-03T07:27:09;6.45;;;2.17;;
59756;SDS011;45631;51.962;5.974;2023-04-03T07:29:39;6.40;;;1.98;;
59756;SDS011;45631;51.962;5.974;2023-04-03T07:32:08;7.70;;;2.10;;
59756;SDS011;45631;51.962;5.974;2023-04-03T07:34:37;5.38;;;1.90;;
59756;SDS011;45631;51.962;5.974;2023-04-03T07:37:05;8.00;;;1.90;;
59756;SDS011;45631;51.962;5.974;2023-04-03T07:42:06;6.63;;;1.58;;
59756;SDS011;45631;51.962;5.974;2023-04-03T07:44:34;6.30;;;1.90;;
59756;SDS011;45631;51.962;5.974;2023-04-03T07:47:03;8.57;;;2.13;;
59756;SDS011;45631;51.962;5.974;2023-04-03T07:49:33;7.43;;;1.77;;
59756;SDS011;45631;51.962;5.974;2023-04-03T07:52:04;6.70;;;1.77;;
59756;SDS011;45631;51.962;5.974;2023-04-03T07:54:33;4.15;;;1.48;;
59756;SDS011;45631;51.962;5.974;2023-04-03T07:57:02;4.90;;;1.42;;
59756;SDS011;45631;51.962;5.974;2023-04-03T07:59:30;6.20;;;2.33;;
59756;SDS011;45631;51.962;5.974;2023-04-03T08:01:58;5.97;;;1.60;;
59756;SDS011;45631;51.962;5.974;2023-04-03T08:04:26;6.65;;;1.73;;
59756;SDS011;45631;51.962;5.974;2023-04-03T08:06:56;4.10;;;1.48;;
59756;SDS011;45631;51.962;5.974;2023-04-03T08:09:24;4.43;;;1.48;;
59756;SDS011;45631;51.962;5.974;2023-04-03T08:11:52;3.80;;;1.25;;
59756;SDS011;45631;51.962;5.974;2023-04-03T08:14:24;5.00;;;1.92;;
59756;SDS011;45631;51.962;5.974;2023-04-03T08:16:52;3.25;;;1.10;;
59756;SDS011;45631;51.962;5.974;2023-04-03T08:19:21;4.07;;;1.35;;
59756;SDS011;45631;51.962;5.974;2023-04-03T08:21:52;5.05;;;1.50;;
59756;SDS011;45631;51.962;5.974;2023-04-03T08:24:25;4.88;;;1.50;;
59756;SDS011;45631;51.962;5.974;2023-04-03T08:26:53;4.85;;;1.20;;
59756;SDS011;45631;51.962;5.974;2023-04-03T08:29:21;3.13;;;1.20;;
59756;SDS011;45631;51.962;5.974;2023-04-03T08:31:49;6.03;;;1.20;;
59756;SDS011;45631;51.962;5.974;2023-04-03T08:34:18;5.07;;;1.20;;
59756;SDS011;45631;51.962;5.974;2023-04-03T08:36:46;5.43;;;1.23;;
59756;SDS011;45631;51.962;5.974;2023-04-03T08:39:15;4.63;;;1.15;;
59756;SDS011;45631;51.962;5.974;2023-04-03T08:41:44;5.90;;;1.42;;
59756;SDS011;45631;51.962;5.974;2023-04-03T08:44:15;4.32;;;1.10;;
59756;SDS011;45631;51.962;5.974;2023-04-03T08:46:54;4.18;;;1.33;;
59756;SDS011;45631;51.962;5.974;2023-04-03T08:49:31;4.95;;;1.13;;
59756;SDS011;45631;51.962;5.974;2023-04-03T08:52:03;6.38;;;1.10;;
59756;SDS011;45631;51.962;5.974;2023-04-03T08:54:37;3.08;;;1.10;;
59756;SDS011;45631;51.962;5.974;2023-04-03T08:57:17;3.25;;;1.25;;
59756;SDS011;45631;51.962;5.974;2023-04-03T08:59:52;2.40;;;0.90;;
59756;SDS011;45631;51.962;5.974;2023-04-03T09:02:23;1.17;;;0.90;;
59756;SDS011;45631;51.962;5.974;2023-04-03T09:04:55;3.22;;;0.95;;
59756;SDS011;45631;51.962;5.974;2023-04-03T09:07:29;3.42;;;0.80;;
59756;SDS011;45631;51.962;5.974;2023-04-03T09:10:04;3.08;;;0.90;;
59756;SDS011;45631;51.962;5.974;2023-04-03T09:12:37;2.90;;;1.02;;
59756;SDS011;45631;51.962;5.974;2023-04-03T09:15:16;2.00;;;0.88;;
59756;SDS011;45631;51.962;5.974;2023-04-03T09:18:04;2.88;;;0.90;;
59756;SDS011;45631;51.962;5.974;2023-04-03T09:20:39;3.05;;;1.00;;
59756;SDS011;45631;51.962;5.974;2023-04-03T09:23:14;4.05;;;0.82;;
59756;SDS011;45631;51.962;5.974;2023-04-03T09:25:49;1.58;;;0.60;;
59756;SDS011;45631;51.962;5.974;2023-04-03T09:28:19;2.78;;;0.68;;
59756;SDS011;45631;51.962;5.974;2023-04-03T09:30:48;1.52;;;0.70;;
59756;SDS011;45631;51.962;5.974;2023-04-03T09:33:16;3.50;;;0.70;;
59756;SDS011;45631;51.962;5.974;2023-04-03T09:35:45;3.03;;;0.88;;
59756;SDS011;45631;51.962;5.974;2023-04-03T09:38:16;2.08;;;0.70;;
59756;SDS011;45631;51.962;5.974;2023-04-03T09:40:47;1.73;;;0.63;;
59756;SDS011;45631;51.962;5.974;2023-04-03T09:43:23;1.55;;;0.70;;
59756;SDS011;45631;51.962;5.974;2023-04-03T09:45:53;2.42;;;0.80;;
59756;SDS011;45631;51.962;5.974;2023-04-03T09:48:26;1.60;;;0.77;;
59756;SDS011;45631;51.962;5.974;2023-04-03T09:50:58;3.55;;;0.75;;
59756;SDS011;45631;51.962;5.974;2023-04-03T09:53:33;1.45;;;0.80;;
59756;SDS011;45631;51.962;5.974;2023-04-03T09:56:04;2.00;;;0.60;;
59756;SDS011;45631;51.962;5.974;2023-04-03T09:58:48;2.28;;;0.73;;
59756;SDS011;45631;51.962;5.974;2023-04-03T10:01:22;3.38;;;0.80;;
59756;SDS011;45631;51.962;5.974;2023-04-03T10:04:07;1.52;;;0.73;;
59756;SDS011;45631;51.962;5.974;2023-04-03T10:06:38;3.10;;;0.88;;
59756;SDS011;45631;51.962;5.974;2023-04-03T10:09:17;1.65;;;0.70;;
59756;SDS011;45631;51.962;5.974;2023-04-03T10:11:57;2.10;;;0.70;;
59756;SDS011;45631;51.962;5.974;2023-04-03T10:14:29;2.38;;;0.90;;
59756;SDS011;45631;51.962;5.974;2023-04-03T10:16:59;1.80;;;0.80;;
59756;SDS011;45631;51.962;5.974;2023-04-03T10:19:34;2.38;;;0.70;;
59756;SDS011;45631;51.962;5.974;2023-04-03T10:22:12;4.70;;;1.05;;
59756;SDS011;45631;51.962;5.974;2023-04-03T10:24:53;2.97;;;0.90;;
59756;SDS011;45631;51.962;5.974;2023-04-03T10:30:24;1.60;;;0.60;;
59756;SDS011;45631;51.962;5.974;2023-04-03T10:33:05;3.90;;;1.00;;
59756;SDS011;45631;51.962;5.974;2023-04-03T10:35:47;1.95;;;0.75;;
59756;SDS011;45631;51.962;5.974;2023-04-03T10:38:28;2.45;;;0.80;;
59756;SDS011;45631;51.962;5.974;2023-04-03T10:41:07;2.20;;;0.70;;
59756;SDS011;45631;51.962;5.974;2023-04-03T10:43:44;1.52;;;0.60;;
59756;SDS011;45631;51.962;5.974;2023-04-03T10:46:25;2.53;;;0.80;;
59756;SDS011;45631;51.962;5.974;2023-04-03T10:49:05;2.80;;;0.82;;
59756;SDS011;45631;51.962;5.974;2023-04-03T10:51:44;1.80;;;0.80;;
59756;SDS011;45631;51.962;5.974;2023-04-03T10:54:17;3.45;;;0.98;;
59756;SDS011;45631;51.962;5.974;2023-04-03T10:56:52;3.45;;;0.90;;
59756;SDS011;45631;51.962;5.974;2023-04-03T10:59:39;2.28;;;0.80;;
59756;SDS011;45631;51.962;5.974;2023-04-03T11:02:16;2.55;;;0.80;;
59756;SDS011;45631;51.962;5.974;2023-04-03T11:04:51;2.97;;;0.80;;
59756;SDS011;45631;51.962;5.974;2023-04-03T11:07:24;2.67;;;0.90;;
59756;SDS011;45631;51.962;5.974;2023-04-03T11:09:58;2.65;;;0.82;;
59756;SDS011;45631;51.962;5.974;2023-04-03T11:12:34;3.13;;;0.98;;
59756;SDS011;45631;51.962;5.974;2023-04-03T11:15:11;3.38;;;0.90;;
59756;SDS011;45631;51.962;5.974;2023-04-03T11:17:45;2.08;;;0.90;;
59756;SDS011;45631;51.962;5.974;2023-04-03T11:20:20;2.75;;;0.90;;
59756;SDS011;45631;51.962;5.974;2023-04-03T11:22:56;2.65;;;0.60;;
59756;SDS011;45631;51.962;5.974;2023-04-03T11:25:29;1.70;;;0.70;;
59756;SDS011;45631;51.962;5.974;2023-04-03T11:28:02;2.97;;;0.80;;
59756;SDS011;45631;51.962;5.974;2023-04-03T11:30:33;4.63;;;1.02;;
59756;SDS011;45631;51.962;5.974;2023-04-03T11:33:17;2.75;;;0.80;;
59756;SDS011;45631;51.962;5.974;2023-04-03T11:35:57;2.25;;;0.80;;
59756;SDS011;45631;51.962;5.974;2023-04-03T11:38:44;2.38;;;0.90;;
59756;SDS011;45631;51.962;5.974;2023-04-03T11:41:15;4.57;;;1.00;;
59756;SDS011;45631;51.962;5.974;2023-04-03T11:43:55;2.40;;;0.73;;
59756;SDS011;45631;51.962;5.974;2023-04-03T11:58:23;3.35;;;0.80;;
59756;SDS011;45631;51.962;5.974;2023-04-03T12:00:54;2.83;;;1.00;;
59756;SDS011;45631;51.962;5.974;2023-04-03T12:03:30;2.80;;;0.85;;
59756;SDS011;45631;51.962;5.974;2023-04-03T12:09:04;3.13;;;1.02;;
59756;SDS011;45631;51.962;5.974;2023-04-03T12:15:41;4.82;;;1.05;;
59756;SDS011;45631;51.962;5.974;2023-04-03T12:21:23;2.20;;;0.90;;
59756;SDS011;45631;51.962;5.974;2023-04-03T12:24:26;2.72;;;1.00;;
59756;SDS011;45631;51.962;5.974;2023-04-03T12:27:03;3.97;;;1.10;;
59756;SDS011;45631;51.962;5.974;2023-04-03T12:30:12;3.38;;;1.05;;
59756;SDS011;45631;51.962;5.974;2023-04-03T12:33:11;3.17;;;0.90;;
59756;SDS011;45631;51.962;5.974;2023-04-03T12:35:51;2.80;;;1.08;;
59756;SDS011;45631;51.962;5.974;2023-04-03T12:38:41;3.03;;;1.00;;
59756;SDS011;45631;51.962;5.974;2023-04-03T12:41:23;3.92;;;1.08;;
59756;SDS011;45631;51.962;5.974;2023-04-03T12:44:04;4.82;;;1.05;;
59756;SDS011;45631;51.962;5.974;2023-04-03T12:46:47;3.13;;;1.05;;
59756;SDS011;45631;51.962;5.974;2023-04-03T12:49:26;2.13;;;1.02;;
59756;SDS011;45631;51.962;5.974;2023-04-03T12:52:06;4.45;;;1.00;;
59756;SDS011;45631;51.962;5.974;2023-04-03T12:54:46;3.10;;;0.88;;
59756;SDS011;45631;51.962;5.974;2023-04-03T12:57:18;3.80;;;1.10;;
59756;SDS011;45631;51.962;5.974;2023-04-03T12:59:48;3.83;;;1.02;;
59756;SDS011;45631;51.962;5.974;2023-04-03T13:02:25;3.38;;;1.13;;
59756;SDS011;45631;51.962;5.974;2023-04-03T13:04:56;3.65;;;1.25;;
59756;SDS011;45631;51.962;5.974;2023-04-03T13:07:27;2.35;;;1.00;;
59756;SDS011;45631;51.962;5.974;2023-04-03T13:10:01;3.75;;;1.20;;
59756;SDS011;45631;51.962;5.974;2023-04-03T13:12:33;3.55;;;1.13;;
59756;SDS011;45631;51.962;5.974;2023-04-03T13:15:11;3.28;;;1.02;;
59756;SDS011;45631;51.962;5.974;2023-04-03T13:17:42;3.03;;;1.23;;
59756;SDS011;45631;51.962;5.974;2023-04-03T13:20:12;4.30;;;1.30;;
59756;SDS011;45631;51.962;5.974;2023-04-03T13:22:47;5.25;;;1.17;;
59756;SDS011;45631;51.962;5.974;2023-04-03T13:25:19;6.20;;;1.20;;
59756;SDS011;45631;51.962;5.974;2023-04-03T13:27:51;2.92;;;1.10;;
59756;SDS011;45631;51.962;5.974;2023-04-03T13:30:38;3.55;;;1.23;;
59756;SDS011;45631;51.962;5.974;2023-04-03T13:33:18;5.45;;;1.00;;
59756;SDS011;45631;51.962;5.974;2023-04-03T13:35:48;3.83;;;1.40;;
59756;SDS011;45631;51.962;5.974;2023-04-03T13:38:23;3.33;;;1.08;;
59756;SDS011;45631;51.962;5.974;2023-04-03T13:40:55;3.55;;;1.40;;
59756;SDS011;45631;51.962;5.974;2023-04-03T13:43:29;3.08;;;1.20;;
59756;SDS011;45631;51.962;5.974;2023-04-03T13:46:00;5.70;;;1.30;;
59756;SDS011;45631;51.962;5.974;2023-04-03T13:48:39;3.17;;;0.98;;
59756;SDS011;45631;51.962;5.974;2023-04-03T13:51:20;2.90;;;1.10;;
59756;SDS011;45631;51.962;5.974;2023-04-03T13:53:51;3.13;;;1.10;;
59756;SDS011;45631;51.962;5.974;2023-04-03T13:56:24;5.78;;;1.70;;
59756;SDS011;45631;51.962;5.974;2023-04-03T13:58:58;5.13;;;1.65;;
59756;SDS011;45631;51.962;5.974;2023-04-03T14:01:41;2.65;;;1.20;;
59756;SDS011;45631;51.962;5.974;2023-04-03T14:04:14;3.15;;;1.30;;
59756;SDS011;45631;51.962;5.974;2023-04-03T14:06:45;3.28;;;1.10;;
59756;SDS011;45631;51.962;5.974;2023-04-03T14:09:15;2.38;;;1.00;;
59756;SDS011;45631;51.962;5.974;2023-04-03T14:11:44;5.70;;;1.35;;
59756;SDS011;45631;51.962;5.974;2023-04-03T14:14:16;4.40;;;1.50;;
59756;SDS011;45631;51.962;5.974;2023-04-03T14:16:50;6.00;;;1.38;;
59756;SDS011;45631;51.962;5.974;2023-04-03T14:19:21;2.13;;;0.90;;
59756;SDS011;45631;51.962;5.974;2023-04-03T14:21:52;4.93;;;1.33;;
59756;SDS011;45631;51.962;5.974;2023-04-03T14:24:22;4.80;;;1.58;;
59756;SDS011;45631;51.962;5.974;2023-04-03T14:26:51;5.53;;;1.33;;
59756;SDS011;45631;51.962;5.974;2023-04-03T14:29:22;4.43;;;1.45;;
59756;SDS011;45631;51.962;5.974;2023-04-03T14:31:51;4.47;;;1.23;;
59756;SDS011;45631;51.962;5.974;2023-04-03T14:34:37;4.90;;;1.40;;
59756;SDS011;45631;51.962;5.974;2023-04-03T14:37:05;6.15;;;1.60;;
59756;SDS011;45631;51.962;5.974;2023-04-03T14:39:38;5.18;;;1.48;;
59756;SDS011;45631;51.962;5.974;2023-04-03T14:42:09;4.22;;;1.30;;
59756;SDS011;45631;51.962;5.974;2023-04-03T14:44:44;3.03;;;1.23;;
59756;SDS011;45631;51.962;5.974;2023-04-03T14:47:13;4.90;;;1.60;;
59756;SDS011;45631;51.962;5.974;2023-04-03T14:49:57;5.32;;;1.58;;
59756;SDS011;45631;51.962;5.974;2023-04-03T14:52:28;3.58;;;1.20;;
59756;SDS011;45631;51.962;5.974;2023-04-03T14:54:57;3.08;;;1.35;;
59756;SDS011;45631;51.962;5.974;2023-04-03T14:57:29;4.47;;;1.35;;
59756;SDS011;45631;51.962;5.974;2023-04-03T15:00:00;6.10;;;1.50;;
59756;SDS011;45631;51.962;5.974;2023-04-03T15:02:33;3.08;;;1.10;;
59756;SDS011;45631;51.962;5.974;2023-04-03T15:05:06;3.47;;;1.27;;
59756;SDS011;45631;51.962;5.974;2023-04-03T15:07:36;5.15;;;1.50;;
59756;SDS011;45631;51.962;5.974;2023-04-03T15:10:14;5.10;;;1.40;;
59756;SDS011;45631;51.962;5.974;2023-04-03T15:12:44;5.18;;;1.40;;
59756;SDS011;45631;51.962;5.974;2023-04-03T15:15:17;4.20;;;1.38;;
59756;SDS011;45631;51.962;5.974;2023-04-03T15:17:47;4.55;;;1.63;;
59756;SDS011;45631;51.962;5.974;2023-04-03T15:20:22;3.15;;;1.48;;
59756;SDS011;45631;51.962;5.974;2023-04-03T15:22:51;3.28;;;1.17;;
59756;SDS011;45631;51.962;5.974;2023-04-03T15:25:19;3.63;;;1.25;;
59756;SDS011;45631;51.962;5.974;2023-04-03T15:27:47;5.00;;;1.70;;
59756;SDS011;45631;51.962;5.974;2023-04-03T15:30:18;4.95;;;1.40;;
59756;SDS011;45631;51.962;5.974;2023-04-03T15:32:47;4.80;;;1.67;;
59756;SDS011;45631;51.962;5.974;2023-04-03T15:35:16;5.15;;;1.60;;
59756;SDS011;45631;51.962;5.974;2023-04-03T15:37:44;5.85;;;1.55;;
59756;SDS011;45631;51.962;5.974;2023-04-03T15:40:14;4.63;;;1.58;;
59756;SDS011;45631;51.962;5.974;2023-04-03T15:42:42;4.13;;;1.50;;